createdAt,value
2018-07-12T06:25:56.990Z,20.44
2018-07-12T06:26:57.196Z,20.25
2018-07-12T06:27:56.875Z,19.75
2018-07-12T06:28:56.594Z,19.39
2018-07-12T06:29:57.122Z,19.01
2018-07-12T06:30:56.442Z,18.79
2018-07-12T06:31:56.985Z,18.52
2018-07-12T06:32:56.556Z,18.26
2018-07-12T06:33:55.762Z,18.15
2018-07-12T06:34:56.393Z,18.03
2018-07-12T06:35:56.017Z,17.93
2018-07-12T06:36:56.052Z,17.88
2018-07-12T06:37:56.154Z,17.88
2018-07-12T06:38:55.267Z,17.93
2018-07-12T06:39:56.012Z,17.94
2018-07-12T06:40:55.989Z,17.99
2018-07-12T06:41:56.244Z,18.13
2018-07-12T06:42:55.730Z,18.15
2018-07-12T06:43:56.293Z,18.17
2018-07-12T06:44:56.380Z,18.24
2018-07-12T06:45:55.833Z,18.38
2018-07-12T06:46:55.993Z,18.41
2018-07-12T06:47:55.357Z,18.52
2018-07-12T06:48:55.472Z,18.57
2018-07-12T06:49:55.560Z,18.56
2018-07-12T06:50:55.269Z,18.60
2018-07-12T06:51:55.355Z,18.60
2018-07-12T06:52:55.230Z,18.66
2018-07-12T06:53:55.234Z,18.63
2018-07-12T06:54:54.997Z,18.70
2018-07-12T06:55:56.293Z,18.76
2018-07-12T06:56:55.137Z,18.85
2018-07-12T06:58:30.071Z,18.76
2018-07-12T06:58:55.532Z,18.93
2018-07-12T06:59:54.674Z,18.97
2018-07-12T07:00:54.973Z,18.97
2018-07-12T07:01:55.033Z,19.08
2018-07-12T07:02:54.609Z,19.17
2018-07-12T07:03:54.734Z,19.19
2018-07-12T07:04:55.358Z,19.16
2018-07-12T07:05:54.659Z,19.20
2018-07-12T07:06:54.719Z,19.20
2018-07-12T07:07:54.697Z,19.23
2018-07-12T07:08:54.398Z,19.22
2018-07-12T07:09:54.235Z,19.15
2018-07-12T07:10:54.274Z,19.24
2018-07-12T07:11:54.939Z,19.32
2018-07-12T07:12:54.075Z,19.35
2018-07-12T07:13:54.079Z,19.23
2018-07-12T07:14:54.096Z,19.32
2018-07-12T07:15:54.038Z,19.26
2018-07-12T07:16:54.472Z,19.22
2018-07-12T07:17:54.093Z,19.15
2018-07-12T07:18:54.060Z,19.23
2018-07-12T07:19:55.122Z,19.16
2018-07-12T07:20:53.800Z,19.22
2018-07-12T07:21:54.073Z,19.15
2018-07-12T07:22:54.219Z,19.17
2018-07-12T07:23:53.680Z,19.13
2018-07-12T07:24:53.786Z,19.15
2018-07-12T07:25:53.637Z,19.22
2018-07-12T07:26:53.498Z,19.16
2018-07-12T07:27:53.537Z,19.22
2018-07-12T07:28:53.313Z,19.37
2018-07-12T07:33:35.739Z,19.23
2018-07-12T07:34:35.275Z,19.23
2018-07-12T07:42:58.312Z,19.31
2018-07-12T08:14:52.030Z,20.26
2018-07-12T08:15:52.358Z,20.32
2018-07-12T08:23:03.782Z,20.39
2018-07-12T08:24:00.252Z,20.42
2018-07-12T08:26:11.996Z,20.48
2018-07-12T08:27:19.901Z,20.39
2018-07-12T08:35:55.779Z,20.39
2018-07-12T08:36:55.639Z,20.34
2018-07-12T08:37:55.859Z,20.46
2018-07-12T08:38:55.695Z,20.49
2018-07-12T08:39:55.235Z,20.44
2018-07-12T08:40:55.593Z,20.44
2018-07-12T08:41:55.577Z,20.37
2018-07-12T08:42:55.436Z,20.42
2018-07-12T08:43:55.119Z,20.34
2018-07-12T08:44:55.049Z,20.25
2018-07-12T08:45:55.697Z,20.19
2018-07-12T08:46:55.135Z,20.18
2018-07-12T08:47:55.853Z,20.17
2018-07-12T08:48:55.558Z,20.19
2018-07-12T08:49:55.173Z,20.17
2018-07-12T08:50:54.908Z,20.17
2018-07-12T08:51:55.096Z,20.15
2018-07-12T08:52:55.355Z,20.11
2018-07-12T08:53:55.549Z,20.27
2018-07-12T08:54:54.933Z,20.23
2018-07-12T08:55:54.849Z,20.39
2018-07-12T08:56:54.656Z,20.48
2018-07-12T08:57:55.517Z,20.42
2018-07-12T08:58:54.875Z,20.48
2018-07-12T08:59:55.059Z,20.53
2018-07-12T09:00:54.594Z,20.55
2018-07-12T09:01:54.404Z,20.53
2018-07-12T09:02:54.797Z,20.55
2018-07-12T09:03:54.173Z,20.61
2018-07-12T09:04:54.056Z,20.58
2018-07-12T09:05:54.173Z,20.55
2018-07-12T09:06:54.189Z,20.52
2018-07-12T09:07:54.410Z,20.53
2018-07-12T09:08:54.014Z,20.50
2018-07-12T09:09:53.712Z,20.55
2018-07-12T09:10:53.671Z,20.53
2018-07-12T09:11:53.877Z,20.49
2018-07-12T09:12:54.284Z,20.50
2018-07-12T09:13:53.936Z,20.53
2018-07-12T09:14:53.555Z,20.64
2018-07-12T09:15:53.476Z,20.61
2018-07-12T09:16:53.779Z,20.65
2018-07-12T09:17:53.616Z,20.75
2018-07-12T09:18:53.212Z,20.67
2018-07-12T09:19:53.259Z,20.71
2018-07-12T09:20:54.336Z,20.75
2018-07-12T09:21:54.073Z,20.82
2018-07-12T09:22:53.331Z,20.92
2018-07-12T09:23:52.961Z,20.88
2018-07-12T09:24:53.197Z,20.86
2018-07-12T09:25:52.688Z,20.95
2018-07-12T09:26:52.658Z,20.88
2018-07-12T09:27:52.853Z,20.80
2018-07-12T09:28:52.550Z,20.95
2018-07-12T09:29:53.240Z,20.88
2018-07-12T09:30:52.466Z,20.98
2018-07-12T09:31:52.593Z,20.90
2018-07-12T09:32:52.631Z,20.89
2018-07-12T09:33:52.114Z,20.88
2018-07-12T09:34:52.100Z,20.90
2018-07-12T09:35:52.310Z,20.89
2018-07-12T09:36:53.132Z,20.75
2018-07-12T09:37:52.075Z,20.79
2018-07-12T09:38:52.253Z,20.75
2018-07-12T09:39:51.858Z,20.75
2018-07-12T09:40:52.473Z,20.68
2018-07-12T09:41:51.792Z,20.68
2018-07-12T09:42:51.619Z,20.60
2018-07-12T09:43:53.572Z,20.56
2018-07-12T09:44:51.830Z,20.60
2018-07-12T09:45:51.490Z,20.60
2018-07-12T09:46:51.522Z,20.56
2018-07-12T09:47:51.494Z,20.52
2018-07-12T09:48:51.856Z,20.53
2018-07-12T09:49:51.277Z,20.50
2018-07-12T09:50:51.555Z,20.53
2018-07-12T09:51:51.246Z,20.55
2018-07-12T09:52:51.553Z,20.49
2018-07-12T09:53:53.592Z,20.56
2018-07-12T09:54:51.191Z,20.60
2018-07-12T09:55:51.599Z,20.50
2018-07-12T09:56:50.892Z,20.60
2018-07-12T09:57:51.491Z,20.58
2018-07-12T09:58:51.181Z,20.55
2018-07-12T09:59:50.915Z,20.60
2018-07-12T10:00:50.678Z,20.55
2018-07-12T10:01:51.156Z,20.55
2018-07-12T10:02:50.597Z,20.55
2018-07-12T10:03:50.857Z,20.56
2018-07-12T10:04:50.474Z,20.49
2018-07-12T10:05:51.030Z,20.55
2018-07-12T10:06:50.442Z,20.50
2018-07-12T10:07:50.332Z,20.50
2018-07-12T10:08:50.675Z,20.52
2018-07-12T10:09:50.261Z,20.50
2018-07-12T10:10:50.315Z,20.48
2018-07-12T10:11:50.154Z,20.49
2018-07-12T10:12:50.514Z,20.50
2018-07-12T10:13:50.211Z,20.49
2018-07-12T10:14:50.234Z,20.46
2018-07-12T10:15:50.095Z,20.37
2018-07-12T10:16:50.891Z,20.34
2018-07-12T10:17:49.930Z,20.46
2018-07-12T10:18:51.281Z,20.46
2018-07-12T10:19:50.020Z,20.44
2018-07-12T10:20:50.572Z,20.42
2018-07-12T10:21:49.610Z,20.49
2018-07-12T10:22:49.570Z,20.41
2018-07-12T10:23:49.778Z,20.44
2018-07-12T10:24:50.558Z,20.44
2018-07-12T10:25:49.658Z,20.39
2018-07-12T10:26:49.470Z,20.49
2018-07-12T10:27:49.491Z,20.58
2018-07-12T10:28:49.453Z,20.60
2018-07-12T10:29:49.157Z,20.73
2018-07-12T10:30:50.322Z,20.74
2018-07-12T10:31:49.974Z,20.92
2018-07-12T10:32:49.958Z,21.01
2018-07-12T10:33:49.152Z,20.97
2018-07-12T10:34:50.198Z,21.03
2018-07-12T10:35:50.060Z,21.16
2018-07-12T10:36:49.352Z,21.19
2018-07-12T10:37:49.714Z,21.30
2018-07-12T10:38:49.517Z,21.34
2018-07-12T10:39:49.735Z,21.43
2018-07-12T10:40:49.493Z,21.43
2018-07-12T10:41:49.296Z,21.51
2018-07-12T10:42:48.578Z,21.66
2018-07-12T10:43:48.671Z,21.66
2018-07-12T10:44:49.092Z,21.81
2018-07-12T10:45:50.934Z,21.82
2018-07-12T10:46:48.791Z,21.88
2018-07-12T10:47:48.813Z,21.91
2018-07-12T10:48:48.758Z,21.96
2018-07-12T10:49:48.773Z,21.97
2018-07-12T10:50:49.074Z,22.01
2018-07-12T10:51:48.736Z,21.97
2018-07-12T10:52:48.738Z,22.04
2018-07-12T10:53:48.574Z,22.13
2018-07-12T10:54:48.732Z,22.11
2018-07-12T10:55:48.462Z,22.13
2018-07-12T10:56:49.292Z,22.16
2018-07-12T10:57:49.135Z,22.15
2018-07-12T10:58:48.165Z,22.22
2018-07-12T10:59:49.373Z,22.27
2018-07-12T11:00:47.972Z,22.33
2018-07-12T11:01:47.975Z,22.34
2018-07-12T11:02:47.856Z,22.36
2018-07-12T11:03:47.953Z,22.37
2018-07-12T11:04:48.652Z,22.37
2018-07-12T11:05:47.676Z,22.37
2018-07-12T11:06:47.654Z,22.37
2018-07-12T11:07:47.857Z,22.41
2018-07-12T11:08:47.518Z,22.51
2018-07-12T11:09:48.014Z,22.49
2018-07-12T11:10:47.619Z,22.52
2018-07-12T11:11:47.620Z,22.48
2018-07-12T11:12:47.137Z,22.56
2018-07-12T11:13:47.317Z,22.61
2018-07-12T11:14:47.039Z,22.61
2018-07-12T11:15:47.329Z,22.58
2018-07-12T11:16:46.858Z,22.70
2018-07-12T11:17:47.137Z,22.56
2018-07-12T11:18:47.497Z,22.67
2018-07-12T11:19:46.993Z,22.66
2018-07-12T11:20:46.911Z,22.67
2018-07-12T11:21:47.036Z,22.80
2018-07-12T11:22:46.513Z,22.80
2018-07-12T11:23:46.478Z,22.71
2018-07-12T11:24:46.814Z,22.77
2018-07-12T11:25:46.472Z,22.78
2018-07-12T11:26:46.272Z,22.76
2018-07-12T11:27:46.315Z,22.80
2018-07-12T11:28:46.017Z,22.81
2018-07-12T11:29:46.621Z,22.77
2018-07-12T11:30:45.959Z,22.86
2018-07-12T11:31:46.278Z,22.86
2018-07-12T11:32:45.833Z,22.85
2018-07-12T11:33:45.759Z,22.86
2018-07-12T11:34:46.016Z,22.85
2018-07-12T11:35:45.992Z,22.86
2018-07-12T11:36:45.849Z,22.88
2018-07-12T11:37:45.892Z,22.91
2018-07-12T11:38:45.292Z,22.92
2018-07-12T11:39:45.755Z,22.96
2018-07-12T11:40:45.434Z,23.03
2018-07-12T11:41:45.217Z,22.95
2018-07-12T11:42:44.977Z,23.03
2018-07-12T11:43:45.356Z,23.04
2018-07-12T11:44:45.257Z,23.10
2018-07-12T11:45:45.080Z,23.06
2018-07-12T11:46:44.815Z,23.13
2018-07-12T11:47:44.633Z,23.06
2018-07-12T11:48:44.536Z,23.10
2018-07-12T11:49:44.971Z,23.10
2018-07-12T11:50:44.621Z,23.15
2018-07-12T11:51:44.875Z,23.03
